QFA846 PASC-PAOM
Flight info
| Callsign | QFA846 |
|---|---|
| Flight time | 0h 56m |
| Altitude | 36000 |
| Route | OTZ J123 OME |
| Aircraft | B738/M-SDE2E3FGHIRWXY/LB1 |
Departure
| Time | 2026-04-14 10:47 |
|---|---|
| Airport | Deadhorse Airport (PASC) |
Arrival
| Time | 2026-04-14 11:43 |
|---|---|
| Airport | Nome Airport (PAOM) |
| Time | Latitude | Longitude | Altitude | Speed | Heading |
|---|---|---|---|---|---|
| 2026-04-14 09:55 | 37.93460 | 23.94702 | 318 ft | 0 kts | 307° |
| 2026-04-14 09:56 | 70.19817 | -148.46310 | 215 ft | 0 kts | 75° |
| 2026-04-14 09:57 | 70.19807 | -148.46303 | 69 ft | 27 kts | 75° |
| 2026-04-14 09:57 | 70.19766 | -148.46269 | 71 ft | 0 kts | 75° |
| 2026-04-14 10:44 | 70.19773 | -148.46203 | 71 ft | 13 kts | 75° |
| 2026-04-14 10:44 | 70.19796 | -148.45940 | 71 ft | 27 kts | 75° |
| 2026-04-14 10:45 | 70.19803 | -148.45412 | 71 ft | 20 kts | 143° |
| 2026-04-14 10:45 | 70.19668 | -148.45242 | 71 ft | 22 kts | 167° |
| 2026-04-14 10:45 | 70.19582 | -148.45493 | 71 ft | 28 kts | 261° |
| 2026-04-14 10:45 | 70.19521 | -148.46186 | 71 ft | 41 kts | 252° |
| 2026-04-14 10:46 | 70.19440 | -148.47055 | 71 ft | 45 kts | 253° |
| 2026-04-14 10:46 | 70.19344 | -148.47950 | 71 ft | 49 kts | 256° |
| 2026-04-14 10:46 | 70.19262 | -148.48848 | 71 ft | 35 kts | 232° |
| 2026-04-14 10:46 | 70.19249 | -148.49038 | 71 ft | 9 kts | 58° |
| 2026-04-14 10:47 | 70.19292 | -148.48513 | 71 ft | 65 kts | 74° |
| 2026-04-14 10:47 | 70.19488 | -148.46405 | 72 ft | 144 kts | 74° |
| 2026-04-14 10:47 | 70.19753 | -148.43420 | 804 ft | 148 kts | 74° |
| 2026-04-14 10:47 | 70.19981 | -148.40538 | 1799 ft | 142 kts | 76° |
| 2026-04-14 10:48 | 70.20160 | -148.37432 | 2605 ft | 165 kts | 81° |
| 2026-04-14 10:48 | 70.20210 | -148.33823 | 3664 ft | 188 kts | 91° |
| 2026-04-14 10:48 | 70.19932 | -148.29793 | 4807 ft | 216 kts | 110° |
| 2026-04-14 10:48 | 70.18992 | -148.26039 | 6017 ft | 245 kts | 143° |
| 2026-04-14 10:49 | 70.17300 | -148.25371 | 7261 ft | 270 kts | 216° |
| 2026-04-14 10:49 | 70.17405 | -148.29738 | 7753 ft | 276 kts | 351° |
| 2026-04-14 10:49 | 70.18230 | -148.26479 | 8209 ft | 287 kts | 143° |
| 2026-04-14 10:49 | 70.16955 | -148.29041 | 7942 ft | 319 kts | 306° |
| 2026-04-14 10:50 | 70.18239 | -148.27632 | 7969 ft | 316 kts | 122° |
| 2026-04-14 10:50 | 70.16832 | -148.29325 | 7767 ft | 339 kts | 304° |
| 2026-04-14 10:50 | 70.17982 | -148.27451 | 7574 ft | 336 kts | 135° |
| 2026-04-14 10:50 | 70.16104 | -148.29750 | 8252 ft | 353 kts | 243° |
| 2026-04-14 10:51 | 70.15145 | -148.36345 | 10177 ft | 349 kts | 249° |
| 2026-04-14 10:51 | 70.14253 | -148.42946 | 12026 ft | 345 kts | 249° |
| 2026-04-14 10:51 | 70.13363 | -148.49549 | 13534 ft | 352 kts | 248° |
| 2026-04-14 10:51 | 70.12359 | -148.56244 | 14682 ft | 364 kts | 244° |
| 2026-04-14 10:52 | 70.11173 | -148.62902 | 15820 ft | 372 kts | 240° |
| 2026-04-14 10:52 | 70.08995 | -148.72958 | 17524 ft | 383 kts | 234° |
| 2026-04-14 10:52 | 70.05581 | -148.85316 | 19467 ft | 397 kts | 227° |
| 2026-04-14 10:52 | 70.01526 | -148.96704 | 21195 ft | 411 kts | 220° |
| 2026-04-14 10:53 | 69.92427 | -149.15248 | 23983 ft | 433 kts | 214° |
| 2026-04-14 10:53 | 69.84792 | -149.42742 | 26411 ft | 453 kts | 249° |
| 2026-04-14 10:53 | 69.80188 | -149.77453 | 28422 ft | 471 kts | 243° |
| 2026-04-14 10:53 | 69.73257 | -150.09762 | 30586 ft | 474 kts | 238° |
| 2026-04-14 10:54 | 69.66882 | -150.42979 | 32552 ft | 474 kts | 243° |
| 2026-04-14 10:54 | 69.60678 | -150.76413 | 34257 ft | 475 kts | 240° |
| 2026-04-14 10:54 | 69.54117 | -151.09232 | 35742 ft | 475 kts | 241° |
| 2026-04-14 10:54 | 69.47710 | -151.42123 | 36369 ft | 474 kts | 241° |
| 2026-04-14 10:55 | 69.41291 | -151.74644 | 36337 ft | 470 kts | 240° |
| 2026-04-14 10:55 | 69.28365 | -152.39056 | 36338 ft | 470 kts | 240° |
| 2026-04-14 10:56 | 69.15310 | -153.02955 | 36337 ft | 471 kts | 240° |
| 2026-04-14 10:56 | 69.02132 | -153.66327 | 36337 ft | 471 kts | 240° |
| 2026-04-14 10:57 | 68.88850 | -154.29152 | 36337 ft | 471 kts | 239° |
| 2026-04-14 10:57 | 68.75462 | -154.91438 | 36337 ft | 471 kts | 239° |
| 2026-04-14 10:58 | 68.61984 | -155.53119 | 36338 ft | 471 kts | 239° |
| 2026-04-14 10:58 | 68.48388 | -156.14323 | 36337 ft | 471 kts | 239° |
| 2026-04-14 10:59 | 68.34694 | -156.74964 | 36338 ft | 471 kts | 238° |
| 2026-04-14 10:59 | 68.20899 | -157.35064 | 36338 ft | 471 kts | 238° |
| 2026-04-14 11:00 | 68.06997 | -157.94655 | 36337 ft | 471 kts | 238° |
| 2026-04-14 11:00 | 67.95125 | -158.46212 | 36338 ft | 471 kts | 239° |
| 2026-04-14 11:01 | 67.91717 | -158.61091 | 36337 ft | 471 kts | 239° |
| 2026-04-14 11:01 | 67.88292 | -158.75898 | 36338 ft | 471 kts | 238° |
| 2026-04-14 11:02 | 67.84858 | -158.90666 | 36338 ft | 470 kts | 238° |
| 2026-04-14 11:02 | 67.81412 | -159.05377 | 36338 ft | 470 kts | 238° |
| 2026-04-14 11:03 | 67.77936 | -159.20011 | 36338 ft | 470 kts | 238° |
| 2026-04-14 11:03 | 67.74410 | -159.34521 | 36338 ft | 469 kts | 237° |
| 2026-04-14 11:04 | 67.70805 | -159.48849 | 36338 ft | 469 kts | 236° |
| 2026-04-14 11:04 | 67.67074 | -159.62920 | 36338 ft | 469 kts | 234° |
| 2026-04-14 11:05 | 67.63155 | -159.76600 | 36338 ft | 468 kts | 231° |
| 2026-04-14 11:05 | 67.58964 | -159.89668 | 36338 ft | 468 kts | 227° |
| 2026-04-14 11:06 | 67.54388 | -160.01787 | 36337 ft | 468 kts | 222° |
| 2026-04-14 11:06 | 67.49890 | -160.14027 | 36340 ft | 468 kts | 233° |
| 2026-04-14 11:07 | 67.46121 | -160.27858 | 36338 ft | 468 kts | 236° |
| 2026-04-14 11:07 | 67.42499 | -160.41947 | 36338 ft | 468 kts | 236° |
| 2026-04-14 11:08 | 67.38900 | -160.56053 | 36338 ft | 468 kts | 237° |
| 2026-04-14 11:08 | 67.35296 | -160.70151 | 36338 ft | 468 kts | 236° |
| 2026-04-14 11:09 | 67.31688 | -160.84220 | 36338 ft | 469 kts | 236° |
| 2026-04-14 11:09 | 67.28073 | -160.98259 | 36338 ft | 469 kts | 236° |
| 2026-04-14 11:10 | 67.22639 | -161.19263 | 36338 ft | 469 kts | 236° |
| 2026-04-14 11:10 | 67.19005 | -161.33241 | 36338 ft | 469 kts | 236° |
| 2026-04-14 11:11 | 67.15365 | -161.47186 | 36338 ft | 469 kts | 236° |
| 2026-04-14 11:11 | 67.11719 | -161.61101 | 36338 ft | 469 kts | 236° |
| 2026-04-14 11:12 | 67.08066 | -161.74987 | 36338 ft | 469 kts | 236° |
| 2026-04-14 11:12 | 67.04406 | -161.88845 | 36338 ft | 469 kts | 236° |
| 2026-04-14 11:13 | 67.00738 | -162.02679 | 36338 ft | 470 kts | 236° |
| 2026-04-14 11:13 | 66.97065 | -162.16479 | 36338 ft | 470 kts | 236° |
| 2026-04-14 11:14 | 66.93297 | -162.30081 | 36329 ft | 469 kts | 226° |
| 2026-04-14 11:14 | 66.90787 | -162.35357 | 36345 ft | 468 kts | 214° |
| 2026-04-14 11:14 | 66.88206 | -162.40394 | 36340 ft | 468 kts | 217° |
| 2026-04-14 11:15 | 66.83077 | -162.50546 | 36338 ft | 467 kts | 219° |
| 2026-04-14 11:15 | 66.77912 | -162.60561 | 36336 ft | 467 kts | 220° |
| 2026-04-14 11:16 | 66.73503 | -162.72603 | 36335 ft | 467 kts | 224° |
| 2026-04-14 11:16 | 66.70990 | -162.77791 | 36335 ft | 466 kts | 210° |
| 2026-04-14 11:16 | 66.68082 | -162.81321 | 36343 ft | 464 kts | 200° |
| 2026-04-14 11:17 | 66.62039 | -162.87110 | 36338 ft | 465 kts | 203° |
| 2026-04-14 11:17 | 66.56167 | -162.93989 | 36338 ft | 466 kts | 206° |
| 2026-04-14 11:18 | 66.50365 | -163.01255 | 36338 ft | 466 kts | 206° |
| 2026-04-14 11:18 | 66.44524 | -163.08351 | 36338 ft | 467 kts | 205° |
| 2026-04-14 11:19 | 66.38660 | -163.15329 | 36338 ft | 467 kts | 205° |
| 2026-04-14 11:19 | 66.32797 | -163.22323 | 36338 ft | 467 kts | 205° |
| 2026-04-14 11:20 | 66.26932 | -163.29307 | 36338 ft | 468 kts | 205° |
| 2026-04-14 11:20 | 66.21054 | -163.36250 | 36338 ft | 468 kts | 205° |
| 2026-04-14 11:21 | 66.15174 | -163.43160 | 36338 ft | 468 kts | 205° |
| 2026-04-14 11:21 | 66.09286 | -163.50047 | 36338 ft | 468 kts | 205° |
| 2026-04-14 11:22 | 66.03394 | -163.56904 | 36338 ft | 468 kts | 205° |
| 2026-04-14 11:22 | 65.97498 | -163.63731 | 36338 ft | 469 kts | 205° |
| 2026-04-14 11:23 | 65.91593 | -163.70541 | 36338 ft | 469 kts | 204° |
| 2026-04-14 11:23 | 65.85683 | -163.77314 | 36338 ft | 469 kts | 204° |
| 2026-04-14 11:24 | 65.79768 | -163.84058 | 36338 ft | 469 kts | 204° |
| 2026-04-14 11:24 | 65.73845 | -163.90778 | 36338 ft | 470 kts | 204° |
| 2026-04-14 11:25 | 65.68919 | -163.96339 | 36338 ft | 470 kts | 204° |
| 2026-04-14 11:25 | 65.62989 | -164.03005 | 36338 ft | 470 kts | 204° |
| 2026-04-14 11:26 | 65.57052 | -164.09643 | 36338 ft | 470 kts | 204° |
| 2026-04-14 11:26 | 65.51127 | -164.16238 | 35772 ft | 468 kts | 204° |
| 2026-04-14 11:27 | 65.48165 | -164.19521 | 34995 ft | 468 kts | 204° |
| 2026-04-14 11:27 | 65.45214 | -164.22784 | 34360 ft | 465 kts | 204° |
| 2026-04-14 11:27 | 65.42279 | -164.26022 | 33641 ft | 464 kts | 204° |
| 2026-04-14 11:27 | 65.39345 | -164.29249 | 32860 ft | 464 kts | 204° |
| 2026-04-14 11:28 | 65.36407 | -164.32474 | 32077 ft | 464 kts | 204° |
| 2026-04-14 11:28 | 65.33475 | -164.35684 | 31291 ft | 464 kts | 204° |
| 2026-04-14 11:28 | 65.30540 | -164.38891 | 30489 ft | 463 kts | 204° |
| 2026-04-14 11:28 | 65.27613 | -164.42080 | 29669 ft | 462 kts | 204° |
| 2026-04-14 11:29 | 65.24688 | -164.45260 | 28824 ft | 462 kts | 204° |
| 2026-04-14 11:29 | 65.21764 | -164.48430 | 27955 ft | 461 kts | 204° |
| 2026-04-14 11:29 | 65.18850 | -164.51582 | 27156 ft | 459 kts | 204° |
| 2026-04-14 11:29 | 65.15965 | -164.54696 | 26519 ft | 452 kts | 204° |
| 2026-04-14 11:30 | 65.13120 | -164.57759 | 25875 ft | 446 kts | 204° |
| 2026-04-14 11:30 | 65.10311 | -164.60775 | 25210 ft | 440 kts | 204° |
| 2026-04-14 11:30 | 65.07536 | -164.63749 | 24548 ft | 435 kts | 204° |
| 2026-04-14 11:30 | 65.04795 | -164.66679 | 23897 ft | 430 kts | 204° |
| 2026-04-14 11:31 | 65.02089 | -164.69566 | 23250 ft | 424 kts | 204° |
| 2026-04-14 11:31 | 64.99412 | -164.72415 | 22603 ft | 419 kts | 204° |
| 2026-04-14 11:31 | 64.96769 | -164.75225 | 21964 ft | 414 kts | 204° |
| 2026-04-14 11:31 | 64.94156 | -164.77997 | 21327 ft | 409 kts | 203° |
| 2026-04-14 11:32 | 64.91574 | -164.80728 | 20694 ft | 404 kts | 203° |
| 2026-04-14 11:32 | 64.89023 | -164.83420 | 20070 ft | 400 kts | 203° |
| 2026-04-14 11:32 | 64.86500 | -164.86077 | 19442 ft | 395 kts | 203° |
| 2026-04-14 11:32 | 64.84005 | -164.88699 | 18822 ft | 391 kts | 203° |
| 2026-04-14 11:33 | 64.81537 | -164.91288 | 18209 ft | 386 kts | 203° |
| 2026-04-14 11:33 | 64.79097 | -164.93841 | 17600 ft | 382 kts | 203° |
| 2026-04-14 11:33 | 64.76685 | -164.96361 | 16999 ft | 378 kts | 203° |
| 2026-04-14 11:34 | 64.71936 | -165.01307 | 15805 ft | 369 kts | 203° |
| 2026-04-14 11:34 | 64.69618 | -165.03715 | 15220 ft | 366 kts | 203° |
| 2026-04-14 11:34 | 64.67286 | -165.06128 | 14630 ft | 362 kts | 202° |
| 2026-04-14 11:34 | 64.64870 | -165.07405 | 14014 ft | 355 kts | 178° |
| 2026-04-14 11:35 | 64.62515 | -165.06139 | 13411 ft | 346 kts | 151° |
| 2026-04-14 11:35 | 64.60698 | -165.02643 | 12806 ft | 338 kts | 125° |
| 2026-04-14 11:35 | 64.59449 | -164.98070 | 12241 ft | 333 kts | 118° |
| 2026-04-14 11:35 | 64.58200 | -164.93566 | 11664 ft | 331 kts | 126° |
| 2026-04-14 11:36 | 64.56446 | -164.90155 | 11087 ft | 332 kts | 152° |
| 2026-04-14 11:36 | 64.54286 | -164.88316 | 10532 ft | 330 kts | 162° |
| 2026-04-14 11:36 | 64.52056 | -164.87091 | 9970 ft | 329 kts | 169° |
| 2026-04-14 11:36 | 64.49799 | -164.86468 | 9373 ft | 325 kts | 175° |
| 2026-04-14 11:37 | 64.47582 | -164.86556 | 8717 ft | 314 kts | 187° |
| 2026-04-14 11:37 | 64.45493 | -164.87700 | 8092 ft | 304 kts | 196° |
| 2026-04-14 11:37 | 64.43518 | -164.89236 | 7438 ft | 296 kts | 205° |
| 2026-04-14 11:37 | 64.41787 | -164.91739 | 6688 ft | 292 kts | 217° |
| 2026-04-14 11:38 | 64.40186 | -164.94714 | 5869 ft | 299 kts | 221° |
| 2026-04-14 11:38 | 64.38972 | -164.98587 | 5151 ft | 298 kts | 250° |
| 2026-04-14 11:38 | 64.38558 | -165.03144 | 4568 ft | 284 kts | 269° |
| 2026-04-14 11:38 | 64.38710 | -165.07533 | 4171 ft | 265 kts | 285° |
| 2026-04-14 11:39 | 64.39315 | -165.11370 | 3871 ft | 244 kts | 300° |
| 2026-04-14 11:39 | 64.40147 | -165.14661 | 3483 ft | 230 kts | 304° |
| 2026-04-14 11:39 | 64.40919 | -165.17754 | 3056 ft | 216 kts | 298° |
| 2026-04-14 11:39 | 64.41421 | -165.20947 | 2709 ft | 207 kts | 283° |
| 2026-04-14 11:40 | 64.41460 | -165.24131 | 2387 ft | 191 kts | 261° |
| 2026-04-14 11:40 | 64.41401 | -165.27076 | 2124 ft | 182 kts | 290° |
| 2026-04-14 11:40 | 64.42145 | -165.29320 | 2038 ft | 178 kts | 330° |
| 2026-04-14 11:40 | 64.43263 | -165.30464 | 1930 ft | 176 kts | 355° |
| 2026-04-14 11:41 | 64.44464 | -165.30345 | 1698 ft | 171 kts | 10° |
| 2026-04-14 11:41 | 64.45639 | -165.30185 | 1637 ft | 164 kts | 3° |
| 2026-04-14 11:41 | 64.46726 | -165.30313 | 1486 ft | 152 kts | 352° |
| 2026-04-14 11:41 | 64.47683 | -165.31239 | 1348 ft | 149 kts | 327° |
| 2026-04-14 11:42 | 64.48463 | -165.32921 | 1058 ft | 161 kts | 319° |
| 2026-04-14 11:42 | 64.49213 | -165.34998 | 818 ft | 171 kts | 308° |
| 2026-04-14 11:42 | 64.49794 | -165.37272 | 562 ft | 155 kts | 300° |
| 2026-04-14 11:42 | 64.50238 | -165.39428 | 366 ft | 144 kts | 297° |
| 2026-04-14 11:43 | 64.50597 | -165.41476 | 110 ft | 131 kts | 296° |
| 2026-04-14 11:43 | 64.50915 | -165.43472 | 48 ft | 121 kts | 294° |
| 2026-04-14 11:43 | 64.51073 | -165.44401 | 48 ft | 1 kts | 285° |
| 2026-04-14 11:43 | 64.51074 | -165.44412 | 48 ft | 1 kts | 276° |
| 2026-04-14 11:44 | 64.51066 | -165.44464 | 48 ft | 3 kts | 233° |
| 2026-04-14 11:44 | 64.51064 | -165.44469 | 48 ft | 0 kts | 232° |
| 2026-04-14 11:44 | 64.51049 | -165.44508 | 48 ft | 9 kts | 225° |
| 2026-04-14 11:44 | 64.50958 | -165.44508 | 48 ft | 17 kts | 152° |
| 2026-04-14 11:45 | 64.50905 | -165.44446 | 48 ft | 0 kts | 157° |
| 2026-04-14 11:45 | 64.50898 | -165.44439 | 48 ft | 2 kts | 158° |
| 2026-04-14 11:45 | 64.50862 | -165.44399 | 48 ft | 6 kts | 150° |
| 2026-04-14 11:45 | 64.50848 | -165.44375 | 48 ft | 4 kts | 141° |
| 2026-04-14 11:46 | 64.50829 | -165.44322 | 48 ft | 5 kts | 125° |
| 2026-04-14 11:46 | 64.50808 | -165.44245 | 48 ft | 6 kts | 120° |
| 2026-04-14 11:46 | 64.50794 | -165.44183 | 48 ft | 0 kts | 103° |